Time;durP1;ratioP1;P1;durP2;ratioP2;P2;SDS_P1;SDS_P2;PMS_P1;PMS_P2;Temp;Humidity;BMP_temperature;BMP_pressure;BME280_temperature;BME280_humidity;BME280_pressure;Samples;Min_cycle;Max_cycle;Signal;HPM_P1;HPM_P2
2021/12/22 00:02:23;;;;;;;135.90;58.15;;;;;;;-5.59;73.28;97978.41;1726812;82;25737;-85
2021/12/22 00:04:50;;;;;;;115.92;51.25;;;;;;;-5.58;73.26;97972.20;1727149;83;25698;-83
2021/12/22 00:07:17;;;;;;;120.80;50.60;;;;;;;-5.55;73.32;97971.99;1727224;82;26405;-86
2021/12/22 00:09:44;;;;;;;117.40;51.23;;;;;;;-5.56;73.23;97970.33;1727191;82;25594;-85
2021/12/22 00:12:11;;;;;;;130.67;54.50;;;;;;;-5.56;73.25;97967.70;1727192;82;28401;-85
2021/12/22 00:14:38;;;;;;;133.25;58.10;;;;;;;-5.55;73.28;97979.88;1727057;82;25765;-86
2021/12/22 00:17:05;;;;;;;138.05;59.85;;;;;;;-5.54;73.21;97976.31;1727244;82;25700;-86
2021/12/22 00:19:32;;;;;;;124.12;52.15;;;;;;;-5.55;73.17;97977.25;1727219;82;25736;-85
2021/12/22 00:21:58;;;;;;;106.00;48.23;;;;;;;-5.55;73.17;97970.67;1726953;82;25765;-81
2021/12/22 00:24:25;;;;;;;98.45;42.53;;;;;;;-5.57;73.19;97981.80;1727317;83;27372;-86
2021/12/22 00:26:53;;;;;;;106.03;44.53;;;;;;;-5.56;73.19;97980.85;1727075;82;25760;-78
2021/12/22 00:29:20;;;;;;;104.23;43.52;;;;;;;-5.55;73.23;97989.55;1727179;82;25732;-85
2021/12/22 00:31:58;;;;;;;97.00;41.05;;;;;;;-5.54;73.22;97995.19;1727199;82;26390;-81
2021/12/22 00:34:17;;;;;;;94.10;38.67;;;;;;;-5.55;73.18;97991.72;1725257;82;26328;-83
2021/12/22 00:36:45;;;;;;;90.32;40.73;;;;;;;-5.57;73.20;97993.62;1727161;82;28194;-86
2021/12/22 00:39:12;;;;;;;117.03;49.58;;;;;;;-5.57;73.25;97997.58;1727047;82;25739;-84
2021/12/22 00:41:39;;;;;;;117.62;48.58;;;;;;;-5.56;73.32;97993.16;1727144;82;25222;-86
2021/12/22 00:44:05;;;;;;;120.85;52.05;;;;;;;-5.55;73.31;97990.41;1727243;82;26364;-86
2021/12/22 00:46:32;;;;;;;131.07;57.05;;;;;;;-5.56;73.31;97996.64;1727090;82;25779;-86
2021/12/22 00:48:58;;;;;;;123.78;53.15;;;;;;;-5.55;73.32;98001.39;1727103;82;27351;-83
2021/12/22 00:51:25;;;;;;;118.65;51.08;;;;;;;-5.54;73.32;98009.66;1727108;82;25726;-86
2021/12/22 00:53:51;;;;;;;119.65;52.83;;;;;;;-5.59;73.24;98003.40;1726938;82;25671;-86
2021/12/22 00:56:18;;;;;;;119.05;54.63;;;;;;;-5.61;73.30;98005.28;1728765;82;25778;-87
2021/12/22 00:58:44;;;;;;;115.82;52.10;;;;;;;-5.61;73.30;98009.22;1732926;82;25755;-85
2021/12/22 01:01:11;;;;;;;122.35;53.38;;;;;;;-5.62;73.32;98013.26;1732900;81;27558;-87
2021/12/22 01:03:38;;;;;;;120.82;52.05;;;;;;;-5.61;73.37;98015.80;1732784;82;25831;-86
2021/12/22 01:06:05;;;;;;;117.87;53.83;;;;;;;-5.61;73.33;98004.43;1732828;82;25751;-86
2021/12/22 01:08:31;;;;;;;116.77;52.15;;;;;;;-5.60;73.32;98004.34;1732860;82;25764;-87
2021/12/22 01:10:58;;;;;;;120.17;51.63;;;;;;;-5.59;73.32;98003.87;1732942;82;25774;-87
2021/12/22 01:13:25;;;;;;;149.72;60.95;;;;;;;-5.60;73.31;98005.66;1732978;81;27411;-86
2021/12/22 01:15:51;;;;;;;122.98;50.67;;;;;;;-5.59;73.30;98008.66;1732772;82;25910;-87
2021/12/22 01:18:29;;;;;;;108.20;47.05;;;;;;;-5.59;73.24;98013.92;1733030;82;25711;-87
2021/12/22 01:21:39;;;;;;;106.85;46.75;;;;;;;-5.60;73.27;98008.28;1732811;81;25735;-87
2021/12/22 01:23:20;;;;;;;109.37;48.75;;;;;;;-5.57;73.30;98005.94;1717747;82;25638;-87
2021/12/22 01:25:48;;;;;;;105.95;48.30;;;;;;;-5.59;73.31;98008.66;1732837;81;27431;-84
2021/12/22 01:28:17;;;;;;;112.10;47.73;;;;;;;-5.60;73.29;98016.17;1732757;82;25669;-86
2021/12/22 01:30:48;;;;;;;107.52;48.52;;;;;;;-5.59;73.38;98010.45;1732569;82;25789;-85
2021/12/22 01:33:16;;;;;;;102.80;45.80;;;;;;;-5.65;73.36;98012.97;1732845;81;25873;-85
2021/12/22 01:35:44;;;;;;;106.60;44.18;;;;;;;-5.66;73.38;98014.38;1732865;82;25781;-86
2021/12/22 01:38:11;;;;;;;102.27;43.92;;;;;;;-5.66;73.44;98010.44;1732961;82;27447;-87
2021/12/22 01:40:42;;;;;;;102.92;43.48;;;;;;;-5.64;73.41;98016.45;1732793;82;25967;-87
2021/12/22 01:43:09;;;;;;;78.20;33.67;;;;;;;-5.64;73.45;98013.82;1733239;82;25765;-87
2021/12/22 01:46:07;;;;;;;106.43;44.00;;;;;;;-5.64;73.45;98012.03;1732797;82;26456;-86
2021/12/22 01:52:06;;;;;;;97.15;41.58;;;;;;;-5.65;73.40;98001.61;1732733;82;28151;-86
2021/12/22 01:54:53;;;;;;;87.02;40.17;;;;;;;-5.68;73.46;97997.41;1732452;81;26091;-85
2021/12/22 01:57:21;;;;;;;90.97;40.88;;;;;;;-5.72;73.48;98002.95;1729022;81;25677;-85
2021/12/22 01:59:49;;;;;;;97.80;42.62;;;;;;;-5.78;73.51;97991.02;1727073;82;26429;-85
2021/12/22 02:02:17;;;;;;;97.27;45.88;;;;;;;-5.79;73.57;97995.89;1727193;83;25674;-85
2021/12/22 02:04:46;;;;;;;96.72;44.63;;;;;;;-5.78;73.58;97995.42;1726867;82;27466;-85
2021/12/22 02:07:13;;;;;;;93.65;44.80;;;;;;;-5.78;73.58;97993.64;1727077;82;26005;-86
2021/12/22 02:12:12;;;;;;;96.53;45.52;;;;;;;-5.75;73.59;98006.61;1712576;83;25832;-84
2021/12/22 02:14:40;;;;;;;100.47;46.88;;;;;;;-5.75;73.61;97998.72;1727219;82;25528;-86
2021/12/22 02:17:09;;;;;;;96.35;42.95;;;;;;;-5.73;73.58;98003.89;1727022;82;27384;-85
2021/12/22 02:19:40;;;;;;;96.22;44.85;;;;;;;-5.71;73.59;98000.70;1726961;82;25796;-86
2021/12/22 02:22:12;;;;;;;74.67;33.25;;;;;;;-5.72;73.55;98006.42;1727193;82;25896;-85
2021/12/22 02:24:39;;;;;;;97.45;41.77;;;;;;;-5.71;73.52;98009.90;1726730;82;25838;-86
2021/12/22 02:27:13;;;;;;;88.15;38.88;;;;;;;-5.71;73.61;98008.11;1726876;82;25725;-86
2021/12/22 02:29:37;;;;;;;94.67;40.15;;;;;;;-5.68;73.68;98009.25;1726145;82;28141;-85
2021/12/22 02:32:36;;;;;;;79.47;37.95;;;;;;;-5.65;73.64;98009.50;1726951;82;26894;-86
2021/12/22 02:34:44;;;;;;;80.25;36.90;;;;;;;-5.76;73.46;98005.38;1722717;82;25787;-85
2021/12/22 02:37:14;;;;;;;82.60;37.55;;;;;;;-5.82;73.55;98006.63;1726963;82;25768;-86
2021/12/22 02:39:56;;;;;;;86.92;38.90;;;;;;;-5.84;73.63;98005.41;1709456;82;25755;-87
2021/12/22 02:42:21;;;;;;;93.45;41.98;;;;;;;-5.86;73.69;97998.55;1685794;83;27445;-86
2021/12/22 02:44:46;;;;;;;94.20;40.55;;;;;;;-5.86;73.74;98006.44;1669429;84;25745;-86
2021/12/22 02:47:19;;;;;;;85.77;41.48;;;;;;;-5.93;73.74;98009.11;1672700;84;25704;-85
2021/12/22 02:49:45;;;;;;;100.30;41.83;;;;;;;-5.95;73.75;98009.67;1698820;83;25767;-85
2021/12/22 02:52:12;;;;;;;86.42;39.27;;;;;;;-5.99;73.75;98008.16;1699567;84;25771;-86
2021/12/22 02:54:47;;;;;;;82.33;39.55;;;;;;;-6.01;73.81;98003.47;1699487;84;27484;-85
2021/12/22 02:57:27;;;;;;;85.75;38.67;;;;;;;-5.98;73.94;98009.86;1700148;82;26282;-84
2021/12/22 03:02:39;;;;;;;106.20;44.83;;;;;;;-5.94;73.97;98012.68;1702169;82;25955;-85
2021/12/22 03:04:58;;;;;;;90.22;40.58;;;;;;;-5.92;74.00;98012.13;1701258;82;25464;-85
2021/12/22 03:07:29;;;;;;;92.17;39.65;;;;;;;-5.95;73.97;98013.15;1702264;84;28140;-85
2021/12/22 03:10:02;;;;;;;93.82;41.60;;;;;;;-5.94;74.04;98026.67;1701891;84;25704;-84
2021/12/22 03:12:33;;;;;;;97.78;42.62;;;;;;;-5.91;74.08;98029.09;1701494;83;25860;-85
2021/12/22 03:15:00;;;;;;;96.63;43.60;;;;;;;-5.88;74.10;98030.19;1702165;82;25845;-84
2021/12/22 03:17:26;;;;;;;99.83;42.70;;;;;;;-5.85;74.10;98031.79;1702257;82;25450;-85
2021/12/22 03:19:54;;;;;;;93.58;40.10;;;;;;;-5.80;74.15;98032.36;1702217;82;28140;-82
2021/12/22 03:22:22;;;;;;;90.45;41.08;;;;;;;-5.80;74.06;98035.81;1701612;82;25767;-85
2021/12/22 03:24:50;;;;;;;91.53;41.20;;;;;;;-5.80;74.06;98041.56;1702013;82;25919;-85
2021/12/22 03:27:19;;;;;;;96.63;41.75;;;;;;;-5.80;74.11;98034.99;1702193;83;26568;-85
2021/12/22 03:29:47;;;;;;;103.83;44.23;;;;;;;-5.77;74.10;98037.88;1684667;85;25711;-85
2021/12/22 03:32:14;;;;;;;100.72;44.85;;;;;;;-5.74;74.17;98037.23;1672596;85;27517;-85
2021/12/22 03:34:42;;;;;;;105.52;45.00;;;;;;;-5.75;74.07;98042.11;1702000;84;25694;-83
2021/12/22 03:37:10;;;;;;;107.25;46.15;;;;;;;-5.74;74.12;98037.23;1702347;84;25765;-85
2021/12/22 03:39:37;;;;;;;106.27;46.18;;;;;;;-5.75;74.14;98039.95;1702401;82;25786;-85
2021/12/22 03:42:07;;;;;;;92.00;43.60;;;;;;;-5.75;74.22;98044.73;1702399;84;25227;-86
2021/12/22 03:44:34;;;;;;;105.30;45.52;;;;;;;-5.74;74.21;98039.86;1702353;84;27451;-86
2021/12/22 03:47:00;;;;;;;101.30;46.48;;;;;;;-5.73;74.24;98044.17;1702321;82;25765;-86
2021/12/22 03:49:28;;;;;;;100.75;46.42;;;;;;;-5.69;74.23;98045.69;1702327;84;25749;-86
2021/12/22 03:51:55;;;;;;;100.65;46.25;;;;;;;-5.69;74.21;98049.63;1702304;82;25767;-86
2021/12/22 03:54:21;;;;;;;97.95;46.50;;;;;;;-5.66;74.19;98040.68;1702439;84;25685;-85
2021/12/22 03:56:49;;;;;;;106.07;46.05;;;;;;;-5.64;74.17;98040.97;1702232;83;27342;-85
2021/12/22 03:59:17;;;;;;;98.37;45.58;;;;;;;-5.62;74.13;98041.72;1699281;83;26036;-85
2021/12/22 04:01:46;;;;;;;97.05;44.35;;;;;;;-5.62;74.11;98040.88;1699608;83;25749;-85
2021/12/22 04:04:15;;;;;;;104.75;45.20;;;;;;;-5.62;74.09;98043.03;1699601;83;25750;-86
2021/12/22 04:06:43;;;;;;;94.17;42.27;;;;;;;-5.61;74.06;98035.52;1699650;84;25207;-85
2021/12/22 04:09:11;;;;;;;97.90;43.98;;;;;;;-5.63;73.95;98037.40;1699619;83;27473;-86
2021/12/22 04:11:38;;;;;;;101.27;44.40;;;;;;;-5.61;73.96;98040.78;1699651;83;25719;-86
2021/12/22 04:14:05;;;;;;;99.62;45.45;;;;;;;-5.60;74.03;98030.64;1699602;84;25734;-86
2021/12/22 04:16:32;;;;;;;92.75;43.52;;;;;;;-5.58;73.96;98026.13;1699540;83;25719;-86
2021/12/22 04:18:58;;;;;;;96.72;43.00;;;;;;;-5.63;73.81;98030.83;1699615;83;25656;-86
2021/12/22 04:21:25;;;;;;;100.15;42.75;;;;;;;-5.63;73.76;98030.83;1699694;83;27395;-86
2021/12/22 04:23:51;;;;;;;95.45;41.33;;;;;;;-5.67;73.66;98026.69;1699405;83;25688;-86
2021/12/22 04:26:18;;;;;;;90.22;41.33;;;;;;;-5.70;73.66;98030.84;1699400;83;26000;-87
2021/12/22 04:28:44;;;;;;;90.60;38.78;;;;;;;-5.70;73.62;98037.42;1699272;83;25826;-86
2021/12/22 04:31:11;;;;;;;102.00;43.60;;;;;;;-5.70;73.61;98035.26;1699723;83;25857;-88
2021/12/22 04:33:38;;;;;;;123.42;51.48;;;;;;;-5.70;73.60;98028.22;1699581;83;27433;-87
2021/12/22 04:36:05;;;;;;;140.80;56.95;;;;;;;-5.70;73.46;98031.31;1699440;83;26063;-86
2021/12/22 04:38:31;;;;;;;137.57;56.10;;;;;;;-5.74;73.41;98031.97;1699641;83;25783;-86
2021/12/22 04:40:58;;;;;;;134.43;55.35;;;;;;;-5.74;73.49;98033.28;1699643;83;25776;-85
2021/12/22 04:43:24;;;;;;;132.80;56.98;;;;;;;-5.81;73.41;98038.56;1699610;83;25755;-85
2021/12/22 04:45:51;;;;;;;131.82;56.83;;;;;;;-5.84;73.49;98037.42;1699540;83;27384;-85
2021/12/22 04:48:18;;;;;;;121.45;53.60;;;;;;;-5.85;73.47;98031.79;1669852;84;25290;-86
2021/12/22 04:50:44;;;;;;;126.27;52.38;;;;;;;-5.86;73.41;98035.36;1681925;84;26312;-86
2021/12/22 04:53:16;;;;;;;128.75;52.13;;;;;;;-5.87;73.33;98036.29;1699664;84;25843;-86
2021/12/22 04:55:40;;;;;;;132.22;53.60;;;;;;;-5.87;73.40;98038.92;1696426;83;26304;-85
2021/12/22 04:58:07;;;;;;;138.55;58.85;;;;;;;-5.85;73.45;98035.73;1696857;83;28585;-85
2021/12/22 05:00:36;;;;;;;150.55;60.35;;;;;;;-5.90;73.36;98039.13;1696992;83;26149;-87
2021/12/22 05:03:04;;;;;;;156.60;67.10;;;;;;;-5.91;73.34;98039.60;1697007;83;25770;-86
2021/12/22 05:05:31;;;;;;;158.10;64.32;;;;;;;-5.96;73.30;98035.58;1697089;83;26468;-86
2021/12/22 05:07:58;;;;;;;151.40;59.23;;;;;;;-5.96;73.29;98036.43;1697077;83;26431;-87
2021/12/22 05:10:26;;;;;;;144.43;56.42;;;;;;;-5.96;73.22;98040.38;1672643;84;27559;-85
2021/12/22 05:12:53;;;;;;;141.20;55.33;;;;;;;-6.00;73.17;98036.70;1697002;83;26276;-85
2021/12/22 05:15:22;;;;;;;132.22;54.50;;;;;;;-6.02;73.13;98039.88;1697021;83;25770;-86
2021/12/22 05:20:21;;;;;;;108.75;44.77;;;;;;;-6.05;73.22;98033.52;1697331;83;25713;-86
2021/12/22 05:22:48;;;;;;;103.90;45.15;;;;;;;-6.03;73.29;98034.25;1673626;84;28758;-86
2021/12/22 05:25:15;;;;;;;102.05;46.92;;;;;;;-6.01;73.33;98032.38;1668854;84;25821;-87
2021/12/22 05:27:42;;;;;;;104.50;45.33;;;;;;;-6.00;73.36;98044.12;1668883;84;25806;-86
2021/12/22 05:30:11;;;;;;;101.58;45.48;;;;;;;-5.98;73.37;98040.09;1668657;84;26896;-85
2021/12/22 05:32:37;;;;;;;92.67;42.60;;;;;;;-5.98;73.46;98038.30;1669026;85;26430;-86
2021/12/22 05:35:08;;;;;;;85.03;39.15;;;;;;;-5.98;73.56;98037.45;1668896;85;28323;-86
2021/12/22 05:37:36;;;;;;;79.92;37.35;;;;;;;-5.91;73.63;98040.07;1668926;84;25674;-83
2021/12/22 05:40:06;;;;;;;87.00;41.13;;;;;;;-5.87;73.66;98042.87;1668925;85;25714;-86
2021/12/22 05:42:32;;;;;;;92.17;42.70;;;;;;;-5.89;73.66;98039.05;1668941;84;25762;-86
2021/12/22 05:44:59;;;;;;;89.25;40.88;;;;;;;-5.88;73.77;98042.52;1668963;85;25804;-86
2021/12/22 05:47:25;;;;;;;83.60;39.58;;;;;;;-5.84;73.88;98044.84;1668935;85;27368;-84
2021/12/22 05:49:52;;;;;;;79.40;37.40;;;;;;;-5.82;73.87;98038.19;1668879;84;25715;-86
2021/12/22 05:52:18;;;;;;;86.80;39.20;;;;;;;-5.81;73.90;98042.03;1668907;85;25817;-85
2021/12/22 05:54:49;;;;;;;90.70;38.00;;;;;;;-5.77;73.88;98040.51;1668881;85;25766;-85
2021/12/22 05:57:13;;;;;;;89.25;37.85;;;;;;;;;;1668845;84;25647;-85
2021/12/22 05:59:40;;;;;;;86.42;37.80;;;;;;;-5.75;73.95;98048.68;1665914;84;28207;-85
2021/12/22 06:02:06;;;;;;;88.62;41.18;;;;;;;-5.74;74.02;98056.10;1681804;85;26318;-85
2021/12/22 06:04:33;;;;;;;95.05;41.95;;;;;;;-5.72;74.07;98055.08;1702417;84;25737;-85
2021/12/22 06:06:59;;;;;;;86.15;39.60;;;;;;;-5.70;74.08;98053.20;1702330;84;26492;-86
2021/12/22 06:09:26;;;;;;;80.00;36.40;;;;;;;-5.67;74.17;98060.03;1702334;84;25741;-85
2021/12/22 06:11:52;;;;;;;77.00;35.68;;;;;;;-5.69;74.17;98060.16;1702274;84;28224;-86
2021/12/22 06:14:19;;;;;;;82.42;37.33;;;;;;;-5.67;74.20;98062.66;1702316;84;25681;-85
2021/12/22 06:16:45;;;;;;;91.87;41.80;;;;;;;-5.63;74.26;98070.28;1702218;84;25886;-86
2021/12/22 06:19:13;;;;;;;91.05;38.53;;;;;;;-5.58;74.30;98072.63;1702349;84;25726;-85
2021/12/22 06:21:40;;;;;;;90.47;39.23;;;;;;;-5.55;74.31;98074.58;1702337;84;25777;-85
2021/12/22 06:24:08;;;;;;;89.37;38.30;;;;;;;-5.52;74.28;98077.50;1702215;84;27330;-85
2021/12/22 06:26:35;;;;;;;92.97;38.50;;;;;;;-5.50;74.26;98080.41;1702175;84;25791;-84
2021/12/22 06:29:01;;;;;;;89.32;38.08;;;;;;;-5.49;74.29;98079.47;1702083;84;25723;-85
2021/12/22 06:31:28;;;;;;;92.88;38.45;;;;;;;-5.47;74.31;98087.27;1702324;84;26071;-85
2021/12/22 06:33:54;;;;;;;104.23;45.40;;;;;;;-5.46;74.35;98091.12;1702393;84;25798;-85
2021/12/22 06:36:21;;;;;;;123.07;51.55;;;;;;;-5.45;74.41;98095.45;1702246;84;28062;-85
2021/12/22 06:38:48;;;;;;;142.45;63.73;;;;;;;-5.42;74.48;98095.70;1702180;84;25746;-85
2021/12/22 06:41:14;;;;;;;136.90;62.43;;;;;;;-5.39;74.53;98088.95;1699946;84;25221;-85
2021/12/22 06:43:41;;;;;;;132.32;57.67;;;;;;;-5.38;74.52;98090.64;1642630;87;25856;-86
2021/12/22 06:46:09;;;;;;;112.05;49.20;;;;;;;-5.39;74.56;98093.36;1698095;83;25846;-86
2021/12/22 06:48:36;;;;;;;108.37;49.00;;;;;;;-5.37;74.62;98099.38;1698051;83;27473;-86
2021/12/22 06:51:02;;;;;;;103.87;46.20;;;;;;;-5.35;74.68;98098.81;1697991;83;25761;-88
2021/12/22 06:53:34;;;;;;;116.93;51.37;;;;;;;-5.31;74.69;98104.28;1698127;83;25753;-86
2021/12/22 06:55:57;;;;;;;101.18;44.15;;;;;;;-5.30;74.67;98110.73;1698395;83;25823;-84
2021/12/22 06:58:24;;;;;;;106.12;49.83;;;;;;;-5.27;74.73;98113.64;1699290;83;25649;-81
2021/12/22 07:00:50;;;;;;;130.00;58.65;;;;;;;-5.26;74.76;98116.19;1707766;83;27430;-86
2021/12/22 07:03:17;;;;;;;152.93;66.97;;;;;;;-5.23;74.77;98125.69;1706427;83;25305;-86
2021/12/22 07:05:43;;;;;;;152.55;66.50;;;;;;;-5.20;74.80;98129.45;1706755;83;26346;-85
2021/12/22 07:08:10;;;;;;;135.60;57.83;;;;;;;-5.18;74.78;98123.12;1706527;83;26457;-85
2021/12/22 07:10:36;;;;;;;124.55;56.55;;;;;;;-5.15;74.79;98129.98;1706770;83;25696;-83
2021/12/22 07:13:06;;;;;;;127.07;52.95;;;;;;;-5.15;74.83;98148.41;1676651;84;28049;-85
2021/12/22 07:15:33;;;;;;;151.63;61.68;;;;;;;-5.15;74.88;98142.67;1684309;83;25667;-85
2021/12/22 07:18:01;;;;;;;150.80;62.93;;;;;;;-5.17;74.90;98147.66;1708561;83;25310;-85
2021/12/22 07:20:28;;;;;;;111.95;53.83;;;;;;;-5.14;75.06;98144.84;1708306;83;25796;-84
2021/12/22 07:22:55;;;;;;;107.90;54.67;;;;;;;-5.09;75.02;98148.04;1708290;83;25703;-85
2021/12/22 07:25:24;;;;;;;100.58;50.20;;;;;;;-5.16;74.82;98149.34;1708416;83;28158;-85
2021/12/22 07:27:50;;;;;;;90.97;42.75;;;;;;;-5.25;74.76;98149.46;1739100;82;25487;-85
2021/12/22 07:30:16;;;;;;;94.70;43.13;;;;;;;-5.32;74.80;98143.38;1739210;82;25737;-86
2021/12/22 07:32:43;;;;;;;88.45;43.95;;;;;;;-5.34;74.95;98150.52;1708348;83;25832;-85
2021/12/22 07:35:19;;;;;;;98.87;46.37;;;;;;;-5.28;75.16;98153.59;1708453;83;25961;-86
2021/12/22 07:38:09;;;;;;;105.25;49.63;;;;;;;-5.20;75.19;98156.61;1739718;82;27432;-85
2021/12/22 07:40:36;;;;;;;117.08;51.45;;;;;;;-5.13;75.18;98158.38;1726123;82;25992;-83
2021/12/22 07:43:03;;;;;;;108.75;51.08;;;;;;;-5.11;75.04;98161.30;1739209;82;25696;-85
2021/12/22 07:45:30;;;;;;;112.97;53.33;;;;;;;-5.08;75.08;98160.27;1739179;82;25741;-83
2021/12/22 07:47:57;;;;;;;106.15;53.15;;;;;;;-5.02;75.14;98166.45;1738909;82;25761;-83
2021/12/22 07:50:24;;;;;;;111.50;53.20;;;;;;;-4.97;75.19;98170.12;1739198;82;27371;-85
2021/12/22 07:52:50;;;;;;;118.15;56.08;;;;;;;-4.94;75.20;98157.58;1738987;82;25739;-84
2021/12/22 07:55:17;;;;;;;118.82;57.03;;;;;;;-4.98;75.10;98166.64;1739165;82;25680;-83
2021/12/22 07:57:43;;;;;;;118.65;59.48;;;;;;;-5.00;75.12;98165.03;1739212;82;25847;-84
2021/12/22 08:00:12;;;;;;;121.40;58.63;;;;;;;-5.00;75.15;98165.88;1730202;82;25718;-82
2021/12/22 08:02:39;;;;;;;120.13;56.80;;;;;;;-5.00;75.29;98171.15;1728758;83;27475;-85
2021/12/22 08:05:06;;;;;;;113.22;53.28;;;;;;;-4.96;75.31;98165.23;1728539;83;25758;-84
2021/12/22 08:07:34;;;;;;;107.65;50.75;;;;;;;-4.98;75.28;98165.33;1728718;83;25674;-83
2021/12/22 08:10:03;;;;;;;114.57;52.65;;;;;;;-4.99;75.25;98168.05;1728707;83;25777;-83
2021/12/22 08:12:30;;;;;;;117.57;51.33;;;;;;;-4.99;75.29;98176.80;1728563;83;25746;-84
2021/12/22 08:14:56;;;;;;;114.00;51.53;;;;;;;-4.97;75.34;98167.48;1728540;82;28240;-83
2021/12/22 08:17:23;;;;;;;122.55;53.35;;;;;;;-4.94;75.42;98165.48;1728841;82;25903;-84
2021/12/22 08:19:49;;;;;;;120.97;55.00;;;;;;;-4.88;75.41;98177.43;1728923;82;25673;-85
2021/12/22 08:22:16;;;;;;;124.33;55.15;;;;;;;-4.83;75.42;98176.68;1728947;82;25638;-83
2021/12/22 08:24:43;;;;;;;129.18;55.67;;;;;;;-4.83;75.40;98178.81;1728867;82;25833;-86
2021/12/22 08:27:09;;;;;;;133.37;59.63;;;;;;;-4.80;75.49;98177.31;1728830;82;27425;-85
2021/12/22 08:29:41;;;;;;;132.63;59.60;;;;;;;-4.78;75.42;98172.80;1728797;82;25698;-83
2021/12/22 08:32:05;;;;;;;119.97;54.00;;;;;;;-4.75;75.52;98177.88;1728753;82;25757;-83
2021/12/22 08:34:37;;;;;;;133.12;58.30;;;;;;;-4.72;75.47;98179.00;1728785;82;25674;-82
2021/12/22 08:39:45;;;;;;;132.67;56.75;;;;;;;-4.62;75.52;98178.41;1728511;82;28263;-85
2021/12/22 08:42:12;;;;;;;131.32;57.50;;;;;;;-4.56;75.55;98184.11;1728730;82;25868;-84
2021/12/22 08:44:38;;;;;;;133.18;58.48;;;;;;;-4.54;75.50;98186.65;1728705;82;25742;-84
2021/12/22 08:47:06;;;;;;;119.72;55.92;;;;;;;-4.51;75.44;98190.41;1728784;82;26505;-84
2021/12/22 08:49:34;;;;;;;122.87;54.53;;;;;;;-4.49;75.33;98197.75;1728769;82;25725;-84
2021/12/22 08:52:01;;;;;;;133.20;58.30;;;;;;;-4.54;75.23;98198.04;1728730;82;27626;-83
2021/12/22 08:54:28;;;;;;;126.47;53.95;;;;;;;-4.55;75.33;98198.13;1728662;82;25826;-82
2021/12/22 08:56:55;;;;;;;115.37;52.27;;;;;;;-4.52;75.46;98193.52;1728817;82;25663;-81
2021/12/22 08:59:23;;;;;;;134.55;55.98;;;;;;;-4.42;75.57;98203.84;1728574;82;25802;-83
2021/12/22 09:01:51;;;;;;;144.77;57.40;;;;;;;-4.33;75.60;98205.48;1728506;82;25761;-84
2021/12/22 09:04:19;;;;;;;111.62;52.33;;;;;;;-4.29;75.52;98203.04;1728714;82;27351;-83
2021/12/22 09:06:48;;;;;;;115.70;58.73;;;;;;;-4.23;75.56;98204.82;1728334;83;25318;-83
2021/12/22 09:09:16;;;;;;;121.65;54.13;;;;;;;-4.13;75.60;98202.42;1728929;82;26258;-81
2021/12/22 09:11:43;;;;;;;111.72;53.08;;;;;;;-4.07;75.55;98201.53;1728298;82;25781;-82
2021/12/22 09:14:12;;;;;;;117.00;52.88;;;;;;;-4.00;75.41;98202.83;1727819;82;25902;-79
2021/12/22 09:16:40;;;;;;;114.50;52.33;;;;;;;-3.98;75.27;98196.61;1721068;82;28210;-81
2021/12/22 09:19:08;;;;;;;111.57;52.58;;;;;;;-4.00;75.24;98201.52;1727484;82;26054;-80
2021/12/22 09:21:36;;;;;;;103.07;50.05;;;;;;;-3.95;75.28;98204.30;1722738;82;26337;-80
2021/12/22 09:24:04;;;;;;;107.85;52.95;;;;;;;-3.92;75.25;98198.36;1694790;82;25788;-82
2021/12/22 09:26:31;;;;;;;110.42;50.48;;;;;;;-3.87;75.22;98204.18;1698638;84;25707;-83
2021/12/22 09:28:58;;;;;;;95.10;46.50;;;;;;;-3.81;75.18;98201.12;1711915;82;27360;-81
2021/12/22 09:31:25;;;;;;;82.22;41.73;;;;;;;-3.77;75.03;98199.12;1699424;83;25767;-83
2021/12/22 09:33:51;;;;;;;89.92;43.13;;;;;;;-3.84;74.80;98202.63;1699414;83;25686;-83
2021/12/22 09:36:19;;;;;;;90.03;44.83;;;;;;;-3.85;74.88;98206.69;1699223;83;25793;-83
2021/12/22 09:38:46;;;;;;;103.87;54.53;;;;;;;-3.88;74.96;98192.41;1702361;84;26192;-82
2021/12/22 09:41:14;;;;;;;99.20;51.15;;;;;;;-3.90;75.02;98210.13;1702120;83;28078;-82
2021/12/22 09:43:41;;;;;;;108.70;54.65;;;;;;;-3.94;75.04;98205.98;1702122;83;25754;-82
2021/12/22 09:46:12;;;;;;;100.50;53.30;;;;;;;-3.97;75.15;98204.86;1702286;83;25373;-81
2021/12/22 09:53:53;;;;;;;86.35;40.75;;;;;;;-3.79;75.16;98199.70;1675601;83;47262;-82
2021/12/22 09:56:25;;;;;;;108.95;59.00;;;;;;;-3.71;75.10;98193.42;1702173;83;25855;-79
2021/12/22 09:58:52;;;;;;;83.58;41.90;;;;;;;-3.60;75.09;98193.53;1702164;83;25829;-82
2021/12/22 10:01:23;;;;;;;81.42;39.27;;;;;;;-3.48;74.90;98199.77;1702201;83;25977;-83
2021/12/22 10:03:51;;;;;;;85.92;41.48;;;;;;;-3.48;74.57;98191.85;1702466;83;25919;-82
2021/12/22 10:06:17;;;;;;;76.28;36.73;;;;;;;-3.44;74.65;98192.87;1702242;83;27387;-82
2021/12/22 10:08:58;;;;;;;81.10;38.13;;;;;;;-3.32;74.59;98190.70;1702259;83;25982;-83
2021/12/22 10:11:25;;;;;;;82.80;39.78;;;;;;;-3.24;74.42;98191.48;1702218;83;25749;-82
2021/12/22 10:13:52;;;;;;;84.95;41.08;;;;;;;-3.21;74.36;98196.55;1702258;83;25858;-83
2021/12/22 10:16:24;;;;;;;108.78;49.90;;;;;;;-3.24;74.17;98196.76;1702262;83;25687;-82
2021/12/22 10:19:04;;;;;;;70.12;32.15;;;;;;;-3.29;74.15;98197.09;1702169;83;27442;-83
2021/12/22 10:21:33;;;;;;;88.40;42.20;;;;;;;-3.34;74.03;98189.95;1702218;83;25777;-82
2021/12/22 10:24:03;;;;;;;89.30;43.15;;;;;;;-3.39;74.10;98185.96;1702306;84;25273;-82
2021/12/22 10:26:29;;;;;;;87.40;40.08;;;;;;;-3.32;74.32;98175.33;1702287;84;25752;-83
2021/12/22 10:29:04;;;;;;;91.12;44.33;;;;;;;-3.27;74.28;98172.76;1702329;84;25812;-83
2021/12/22 10:31:45;;;;;;;103.42;48.55;;;;;;;-3.23;74.29;98175.16;1701505;84;28438;-82
2021/12/22 10:34:17;;;;;;;115.08;53.95;;;;;;;-3.20;74.16;98173.63;1702121;84;25931;-82
2021/12/22 10:36:55;;;;;;;180.45;85.17;;;;;;;-3.21;74.11;98175.43;1699170;84;25765;-82
2021/12/22 10:39:28;;;;;;;129.23;62.23;;;;;;;-3.17;74.22;98174.75;1669524;84;25766;-83
2021/12/22 10:42:08;;;;;;;102.45;44.98;;;;;;;-3.11;74.23;98169.02;1699215;84;25709;-82
2021/12/22 10:44:39;;;;;;;67.92;33.05;;;;;;;-3.02;74.27;98175.00;1726755;82;27397;-82
2021/12/22 10:47:35;;;;;;;64.42;32.55;;;;;;;-2.88;74.20;98180.59;1726704;82;25987;-82
2021/12/22 10:50:06;;;;;;;64.85;31.10;;;;;;;-2.77;74.06;98169.63;1727543;81;25742;-83
2021/12/22 10:52:35;;;;;;;56.28;28.27;;;;;;;-2.68;73.83;98165.03;1726658;81;25711;-82
2021/12/22 10:55:14;;;;;;;59.85;28.35;;;;;;;-2.62;73.63;98168.53;1726824;82;25296;-82
2021/12/22 10:57:45;;;;;;;55.55;29.45;;;;;;;-2.55;73.57;98164.98;1726728;82;28347;-82
2021/12/22 11:00:28;;;;;;;75.65;36.68;;;;;;;-2.49;73.39;98159.71;1725908;83;25308;-82
2021/12/22 11:03:07;;;;;;;103.45;47.15;;;;;;;-2.47;73.38;98167.91;1702477;83;25721;-83
2021/12/22 11:05:47;;;;;;;136.10;58.25;;;;;;;-2.39;73.17;98162.05;1702413;83;25809;-81
2021/12/22 11:08:20;;;;;;;106.35;46.15;;;;;;;-2.43;73.08;98164.09;1702761;83;25785;-83
2021/12/22 11:10:49;;;;;;;89.87;41.80;;;;;;;-2.44;72.92;98164.20;1702724;83;27520;-82
2021/12/22 11:13:22;;;;;;;75.08;36.93;;;;;;;-2.45;73.03;98157.22;1702589;84;26446;-83
2021/12/22 11:15:51;;;;;;;86.17;42.48;;;;;;;-2.41;73.05;98149.41;1702663;83;25745;-82
2021/12/22 11:18:34;;;;;;;81.82;43.13;;;;;;;-2.44;72.92;98150.98;1702744;83;26516;-83
2021/12/22 11:21:29;;;;;;;85.97;44.08;;;;;;;-2.43;73.03;98151.34;1674013;84;25762;-82
2021/12/22 11:23:52;;;;;;;80.60;43.15;;;;;;;-2.39;73.12;98148.82;1644125;86;27418;-82
2021/12/22 11:26:18;;;;;;;61.42;32.03;;;;;;;-2.31;73.19;98153.09;1643980;86;25895;-81
2021/12/22 11:28:45;;;;;;;57.67;27.85;;;;;;;-2.26;73.08;98152.25;1657398;85;25802;-83
2021/12/22 11:31:12;;;;;;;66.45;31.87;;;;;;;-2.25;72.91;98149.50;1702681;83;25943;-83
2021/12/22 11:33:41;;;;;;;66.37;35.88;;;;;;;-2.22;72.74;98149.76;1723263;82;25809;-81
2021/12/22 11:36:10;;;;;;;65.00;31.37;;;;;;;-2.24;72.75;98143.73;1701121;83;27394;-83
2021/12/22 11:38:38;;;;;;;84.95;40.03;;;;;;;-2.22;72.74;98144.47;1701102;84;26396;-83
2021/12/22 11:41:16;;;;;;;77.70;36.88;;;;;;;-2.19;72.70;98144.25;1676983;84;25309;-83